Time;durP1;ratioP1;P1;durP2;ratioP2;P2;SDS_P1;SDS_P2;PMS_P1;PMS_P2;Temp;Humidity;BMP_temperature;BMP_pressure;BME280_temperature;BME280_humidity;BME280_pressure;Samples;Min_cycle;Max_cycle;Signal;HPM_P1;HPM_P2
2023/10/13 07:01:42;;;;;;;1.67;1.58;;;19.30;99.90;21.50;100322.00;;;;5992427;22;4469543;-68
2023/10/13 07:04:16;;;;;;;4.78;2.70;;;19.20;99.90;21.50;100312.00;;;;6161139;23;20147;-68
2023/10/13 07:07:05;;;;;;;0.60;0.60;;;19.30;99.90;22.10;100306.00;;;;6136511;23;20173;-68
2023/10/13 07:12:06;;;;;;;0.77;0.77;;;19.40;99.90;21.90;100290.00;;;;6161656;23;20169;-68
2023/10/13 07:14:51;;;;;;;2.97;1.42;;;19.40;99.90;22.40;100283.00;;;;6161726;23;20222;-69
2023/10/13 07:17:32;;;;;;;1.27;1.23;;;19.60;99.90;22.30;100284.00;;;;6187256;23;20158;-68
2023/10/13 07:22:57;;;;;;;3.60;2.45;;;19.40;99.90;22.40;100294.00;;;;6164953;23;20170;-68
2023/10/13 07:25:26;;;;;;;2.72;2.08;;;19.60;99.90;22.30;100269.00;;;;6187029;23;20139;-68
2023/10/13 07:27:56;;;;;;;2.88;2.67;;;19.60;99.90;21.70;100258.00;;;;6161242;23;20139;-68
2023/10/13 07:30:26;;;;;;;1.20;1.15;;;19.60;99.90;21.80;100273.00;;;;6160921;23;20214;-68
2023/10/13 07:32:59;;;;;;;2.40;1.60;;;19.50;99.90;22.40;100284.00;;;;6160624;23;20551;-68
2023/10/13 07:35:43;;;;;;;1.25;1.15;;;19.60;99.90;22.20;100277.00;;;;6136420;23;20162;-68
2023/10/13 07:38:42;;;;;;;6.57;3.05;;;19.70;99.90;22.10;100266.00;;;;6136477;23;20166;-70
2023/10/13 07:41:09;;;;;;;1.95;1.48;;;19.80;99.90;22.90;100274.00;;;;6186889;23;20564;-71
2023/10/13 07:43:37;;;;;;;1.13;1.13;;;20.00;99.90;22.80;100240.00;;;;6187124;23;20158;-69
2023/10/13 07:46:09;;;;;;;2.90;2.70;;;20.20;99.90;22.30;100259.00;;;;6136200;23;20253;-70
2023/10/13 07:48:45;;;;;;;0.70;0.70;;;20.10;99.90;23.50;100250.00;;;;6137729;23;20182;-70
2023/10/13 07:52:14;;;;;;;1.50;1.33;;;20.40;99.90;22.90;100261.00;;;;6137379;23;20162;-69
2023/10/13 07:54:39;;;;;;;11.10;2.08;;;20.60;99.90;22.70;100239.00;;;;6148999;23;20174;-69
2023/10/13 07:57:14;;;;;;;5.53;3.63;;;20.40;99.90;22.60;100247.00;;;;6136979;23;20217;-69
2023/10/13 07:59:51;;;;;;;0.75;0.75;;;20.30;99.90;22.80;100239.00;;;;6136306;23;20186;-69
2023/10/13 08:02:48;;;;;;;1.95;1.50;;;20.30;99.90;22.30;100243.00;;;;6160699;23;20201;-69
2023/10/13 08:05:14;;;;;;;1.10;1.02;;;20.30;99.90;23.10;100250.00;;;;6164215;23;20499;-69
2023/10/13 08:07:55;;;;;;;1.42;1.33;;;20.50;99.90;23.10;100239.00;;;;6136586;23;20453;-69
2023/10/13 08:10:29;;;;;;;7.85;2.92;;;20.50;99.90;22.60;100232.00;;;;6137575;23;20158;-69
2023/10/13 08:12:58;;;;;;;3.03;1.33;;;20.40;99.90;22.40;100216.00;;;;6136373;23;20191;-69
2023/10/13 08:16:44;;;;;;;4.13;1.85;;;20.30;99.90;22.50;100237.00;;;;6160432;23;20135;-69
2023/10/13 08:19:06;;;;;;;4.22;1.70;;;20.30;99.90;22.70;100221.00;;;;6179326;23;20173;-69
2023/10/13 08:21:37;;;;;;;1.90;1.13;;;20.40;99.90;22.90;100233.00;;;;6161298;23;20139;-69
2023/10/13 08:24:07;;;;;;;2.03;1.92;;;20.50;99.90;23.70;100220.00;;;;6161970;23;20186;-69
2023/10/13 08:32:14;;;;;;;0.40;0.40;;;20.70;99.90;23.60;100228.00;;;;6161988;23;20170;-69
2023/10/13 08:38:14;;;;;;;1.48;1.38;;;20.80;99.90;22.90;100223.00;;;;6160461;23;20151;-69
2023/10/13 08:41:29;;;;;;;4.70;1.67;;;20.70;99.90;22.90;100237.00;;;;6104378;23;20591;-70
2023/10/13 08:43:43;;;;;;;0.63;0.60;;;20.70;99.90;23.70;100210.00;;;;6147227;23;20174;-70
2023/10/13 08:47:03;;;;;;;1.83;1.75;;;20.90;99.90;22.90;100237.00;;;;6161570;23;20157;-68
2023/10/13 08:49:39;;;;;;;1.02;0.85;;;20.70;99.90;23.00;100228.00;;;;6138804;23;20155;-70
2023/10/13 08:52:38;;;;;;;9.32;3.15;;;20.80;99.90;23.20;100227.00;;;;6186004;23;20167;-70
2023/10/13 08:55:13;;;;;;;1.35;0.98;;;20.70;99.90;23.40;100220.00;;;;6185996;23;20221;-71
2023/10/13 08:57:40;;;;;;;2.60;1.38;;;20.80;99.90;23.20;100226.00;;;;6163500;23;20139;-70
2023/10/13 09:00:28;;;;;;;2.38;2.17;;;20.90;99.90;23.00;100214.00;;;;6137071;23;20603;-70
2023/10/13 09:03:26;;;;;;;2.00;1.90;;;20.90;99.90;23.50;100214.00;;;;6166407;23;20666;-70
2023/10/13 09:11:27;;;;;;;1.90;1.30;;;20.90;99.90;23.90;100204.00;;;;6193482;23;20221;-70
2023/10/13 09:13:53;;;;;;;4.97;4.47;;;21.20;99.90;23.90;100237.00;;;;6189310;23;20174;-70
2023/10/13 09:16:51;;;;;;;0.20;0.20;;;21.30;99.90;24.10;100221.00;;;;6189087;23;20517;-70
2023/10/13 09:19:11;;;;;;;0.55;0.55;;;21.40;99.90;24.50;100225.00;;;;6215376;23;20199;-70
2023/10/13 09:24:21;;;;;;;3.20;1.50;;;21.60;99.90;23.70;100230.00;;;;6189794;23;20151;-70
2023/10/13 09:26:55;;;;;;;1.25;0.90;;;21.40;99.90;24.40;100226.00;;;;6166899;23;20158;-70
2023/10/13 09:29:24;;;;;;;0.38;0.38;;;21.50;99.90;24.50;100228.00;;;;6190388;23;20177;-70
2023/10/13 09:32:04;;;;;;;2.47;2.28;;;21.50;99.90;24.00;100215.00;;;;6189929;23;20442;-70
2023/10/13 09:34:40;;;;;;;2.63;1.55;;;21.50;99.90;23.60;100216.00;;;;6215933;23;20471;-69
2023/10/13 09:37:06;;;;;;;3.47;1.45;;;21.30;99.90;23.70;100227.00;;;;6166170;23;20161;-70
2023/10/13 09:42:18;;;;;;;2.70;1.50;;;21.20;99.90;23.60;100213.00;;;;6191500;23;20392;-69
2023/10/13 09:44:55;;;;;;;1.10;1.10;;;21.20;99.90;23.90;100212.00;;;;6189309;23;20142;-70
2023/10/13 09:47:29;;;;;;;0.70;0.68;;;21.20;99.90;23.90;100211.00;;;;6166473;23;20158;-70
2023/10/13 09:50:05;;;;;;;1.00;0.90;;;21.20;99.90;23.80;100203.00;;;;6165843;23;20164;-70
2023/10/13 09:52:37;;;;;;;4.38;1.60;;;21.20;99.90;23.60;100201.00;;;;6165384;23;20249;-70
2023/10/13 09:56:00;;;;;;;1.75;1.65;;;21.30;99.90;23.90;100175.00;;;;6165408;23;20164;-70
2023/10/13 09:58:35;;;;;;;3.58;2.08;;;21.20;99.90;23.70;100197.00;;;;6167006;23;20165;-70
2023/10/13 10:01:20;;;;;;;1.75;1.63;;;21.20;99.90;24.00;100213.00;;;;6165788;23;20598;-70
2023/10/13 10:04:07;;;;;;;8.48;0.98;;;21.20;99.90;24.00;100209.00;;;;6167137;23;20301;-70
2023/10/13 10:06:43;;;;;;;3.67;1.65;;;21.20;99.90;23.70;100196.00;;;;6189089;23;20162;-69
2023/10/13 10:09:14;;;;;;;0.50;0.50;;;21.10;99.90;24.80;100222.00;;;;6165415;23;20162;-70
2023/10/13 10:12:10;;;;;;;0.30;0.30;;;21.30;99.90;24.90;100236.00;;;;6164376;23;20240;-70
2023/10/13 10:15:30;;;;;;;1.85;1.10;;;21.40;99.90;25.40;100244.00;;;;6215247;23;20571;-70
2023/10/13 10:17:57;;;;;;;1.65;1.55;;;21.50;99.90;23.70;100236.00;;;;6189258;23;20608;-69
2023/10/13 10:20:41;;;;;;;0.70;0.70;;;21.50;99.90;24.40;100261.00;;;;6164088;23;20190;-70
2023/10/13 10:33:40;;;;;;;1.70;1.65;;;20.70;99.90;23.50;100215.00;;;;5172482;27;20499;-70
2023/10/13 10:36:14;;;;;;;1.75;1.65;;;20.90;99.90;23.30;100222.00;;;;5139139;27;20205;-69
2023/10/13 10:39:00;;;;;;;0.20;0.20;;;21.00;99.90;23.80;100223.00;;;;5120982;27;20210;-69
2023/10/13 10:44:33;;;;;;;0.85;0.85;;;21.10;99.90;24.40;100230.00;;;;5153795;27;20224;-68
2023/10/13 10:47:36;;;;;;;0.95;0.90;;;21.20;99.90;23.80;100208.00;;;;5108167;27;20534;-67
2023/10/13 10:50:21;;;;;;;1.25;1.10;;;21.20;99.90;24.10;100216.00;;;;5114299;28;20195;-68
2023/10/13 10:53:11;;;;;;;0.40;0.40;;;21.20;99.90;23.80;100207.00;;;;5089453;28;20319;-68
2023/10/13 10:55:37;;;;;;;3.60;1.90;;;21.30;99.90;23.90;100196.00;;;;5131838;27;20646;-68
2023/10/13 10:58:43;;;;;;;1.02;1.00;;;21.30;99.90;23.80;100190.00;;;;5091178;28;20203;-68
2023/10/13 11:01:18;;;;;;;0.77;0.63;;;21.30;99.90;24.00;100198.00;;;;5091932;28;20172;-68
2023/10/13 11:04:14;;;;;;;1.88;1.33;;;21.30;99.90;23.90;100191.00;;;;5102236;28;20212;-69
2023/10/13 11:07:24;;;;;;;11.88;2.45;;;21.40;99.90;24.40;100190.00;;;;5081606;28;20221;-68
2023/10/13 11:10:17;;;;;;;1.08;0.68;;;21.60;99.90;24.80;100187.00;;;;5101056;28;20191;-68
2023/10/13 11:13:21;;;;;;;11.45;1.42;;;21.70;99.90;24.80;100192.00;;;;5080774;28;20201;-68
2023/10/13 11:16:12;;;;;;;0.40;0.40;;;21.70;99.90;25.20;100193.00;;;;5091560;28;20576;-68
2023/10/13 11:18:40;;;;;;;1.45;0.80;;;22.00;99.90;25.00;100194.00;;;;5111740;27;20625;-69
2023/10/13 11:21:52;;;;;;;1.48;1.40;;;22.00;99.90;24.50;100184.00;;;;5120254;28;20601;-68
2023/10/13 11:24:21;;;;;;;1.35;0.80;;;21.90;99.90;24.80;100147.00;;;;5086088;28;20545;-68
2023/10/13 11:30:41;;;;;;;15.20;4.03;;;22.00;99.90;24.80;100162.00;;;;5097367;28;20184;-68
2023/10/13 11:33:48;;;;;;;1.08;0.90;;;22.00;99.90;24.80;100178.00;;;;5115138;28;20196;-68
2023/10/13 11:36:52;;;;;;;3.78;0.45;;;22.00;99.90;25.00;100181.00;;;;5110065;28;20167;-68
2023/10/13 11:39:56;;;;;;;1.15;1.05;;;22.10;99.90;25.70;100187.00;;;;5111580;28;20711;-68
2023/10/13 11:42:58;;;;;;;0.13;0.13;;;22.10;99.90;25.80;100191.00;;;;5100302;28;20175;-68
2023/10/13 11:49:18;;;;;;;2.08;1.98;;;22.40;99.90;25.90;100176.00;;;;5096527;28;20702;-68
2023/10/13 11:52:42;;;;;;;0.75;0.70;;;22.70;99.90;25.60;100176.00;;;;5083081;28;20290;-68
2023/10/13 11:55:46;;;;;;;2.50;1.65;;;22.70;99.90;25.20;100163.00;;;;5095199;28;20247;-68
2023/10/13 11:58:39;;;;;;;0.85;0.85;;;22.50;99.90;26.10;100180.00;;;;5064800;28;20627;-68
2023/10/13 12:07:16;;;;;;;1.23;0.95;;;23.00;99.90;26.00;100181.00;;;;5070699;28;20172;-68
2023/10/13 12:10:16;;;;;;;1.55;1.15;;;23.00;99.90;26.70;100181.00;;;;5090515;28;20172;-68
2023/10/13 12:13:05;;;;;;;0.90;0.90;;;23.10;99.90;25.80;100172.00;;;;5099904;28;20196;-68
2023/10/13 12:15:48;;;;;;;1.33;1.15;;;22.80;99.90;25.60;100180.00;;;;5026252;28;20193;-68
2023/10/13 12:18:37;;;;;;;0.63;0.63;;;22.80;99.90;25.70;100189.00;;;;5078457;28;20490;-68
2023/10/13 12:21:19;;;;;;;0.40;0.40;;;22.80;99.90;26.70;100190.00;;;;5076174;28;20195;-69
2023/10/13 12:23:53;;;;;;;0.63;0.63;;;23.10;99.90;26.60;100191.00;;;;5073031;28;20207;-68
2023/10/13 12:26:55;;;;;;;0.10;0.10;;;23.10;99.90;27.10;100197.00;;;;5077350;28;20172;-68
2023/10/13 12:29:28;;;;;;;2.20;1.92;;;23.50;99.90;27.00;100187.00;;;;5087546;28;20172;-69
2023/10/13 12:32:12;;;;;;;0.60;0.60;;;23.50;99.90;27.90;100213.00;;;;5070664;28;20595;-69
2023/10/13 12:52:32;;;;;;;1.40;1.40;;;23.50;99.90;26.50;100200.00;;;;5021745;28;20211;-68
2023/10/13 12:55:24;;;;;;;1.20;0.50;;;23.50;99.90;27.50;100202.00;;;;5006697;28;20259;-69
2023/10/13 12:57:59;;;;;;;5.93;1.80;;;23.70;99.90;27.50;100213.00;;;;5012478;28;20658;-69
2023/10/13 13:00:48;;;;;;;1.15;0.90;;;23.80;99.90;27.10;100220.00;;;;4996320;28;20181;-69
2023/10/13 13:03:14;;;;;;;1.23;1.08;;;23.80;99.90;26.90;100182.00;;;;5039473;28;20275;-69
2023/10/13 13:05:55;;;;;;;1.20;1.08;;;23.60;99.90;27.10;100176.00;;;;5093491;28;20283;-69
2023/10/13 13:08:44;;;;;;;1.85;1.05;;;23.50;99.90;26.70;100142.00;;;;5099146;28;20173;-68
2023/10/13 13:11:40;;;;;;;1.35;0.82;;;23.40;99.90;26.40;100167.00;;;;5070991;28;20184;-68
2023/10/13 13:14:34;;;;;;;6.18;5.72;;;23.40;99.90;27.40;100165.00;;;;5067389;28;20192;-69
2023/10/13 13:17:19;;;;;;;1.80;1.67;;;23.50;99.90;26.10;100131.00;;;;5075182;28;20194;-69
2023/10/13 13:20:28;;;;;;;1.02;1.02;;;23.40;99.90;26.00;100125.00;;;;5103648;28;20251;-68
2023/10/13 13:23:02;;;;;;;8.27;3.45;;;23.20;99.90;26.50;100142.00;;;;5069708;28;20172;-69
2023/10/13 13:25:33;;;;;;;3.90;0.70;;;23.30;99.90;25.80;100136.00;;;;5095252;28;20186;-68
2023/10/13 13:28:13;;;;;;;0.38;0.38;;;23.10;99.90;26.80;100128.00;;;;5094772;28;20183;-70
2023/10/13 13:30:41;;;;;;;6.35;1.27;;;23.30;99.90;26.50;100135.00;;;;5079041;28;20181;-69
2023/10/13 13:33:16;;;;;;;1.73;1.63;;;23.30;99.90;26.20;100153.00;;;;5108771;28;20254;-68
2023/10/13 13:35:43;;;;;;;0.20;0.20;;;23.40;99.90;27.20;100162.00;;;;5095935;28;20195;-68
2023/10/13 13:38:10;;;;;;;2.80;2.08;;;23.50;99.90;27.50;100178.00;;;;5084632;28;20166;-69
2023/10/13 13:40:48;;;;;;;1.40;1.15;;;23.70;99.90;27.20;100172.00;;;;5084193;28;20176;-69
2023/10/13 13:43:50;;;;;;;1.33;1.27;;;23.70;99.90;27.80;100184.00;;;;5075945;28;20242;-69
2023/10/13 13:46:29;;;;;;;1.67;1.58;;;23.90;99.90;26.80;100151.00;;;;5097274;28;20180;-69
2023/10/13 13:49:02;;;;;;;0.90;0.70;;;23.70;99.90;26.80;100166.00;;;;5100257;28;20215;-68
2023/10/13 13:51:37;;;;;;;0.95;0.95;;;23.60;99.90;26.70;100152.00;;;;5094182;28;20539;-69
2023/10/13 13:54:09;;;;;;;0.10;0.10;;;23.40;99.90;27.10;100159.00;;;;5092584;28;20187;-69
2023/10/13 13:57:13;;;;;;;0.55;0.55;;;23.50;99.90;27.20;100166.00;;;;5073008;28;20177;-69
2023/10/13 14:00:07;;;;;;;0.20;0.20;;;23.60;99.90;28.10;100156.00;;;;5095531;28;20244;-69
2023/10/13 14:02:39;;;;;;;0.75;0.73;;;23.90;99.90;28.50;100195.00;;;;5086618;28;20193;-69
2023/10/13 14:05:58;;;;;;;1.55;1.45;;;24.30;99.90;26.90;100189.00;;;;5086661;28;20182;-69
2023/10/13 14:09:16;;;;;;;1.65;1.63;;;24.00;99.90;26.20;100132.00;;;;5052827;28;20196;-69
2023/10/13 14:14:55;;;;;;;0.50;0.50;;;23.30;99.90;27.00;100157.00;;;;5024696;28;20197;-69
2023/10/13 14:17:35;;;;;;;0.20;0.20;;;23.40;99.90;27.40;100141.00;;;;5091795;28;20240;-69
2023/10/13 14:20:09;;;;;;;1.50;1.40;;;23.50;99.90;26.70;100152.00;;;;5099454;28;20259;-69
2023/10/13 14:22:53;;;;;;;0.20;0.20;;;23.40;99.90;26.30;100116.00;;;;5097066;28;20609;-69
2023/10/13 14:25:55;;;;;;;0.73;0.52;;;23.20;99.90;26.30;100134.00;;;;5106123;28;20168;-69
2023/10/13 14:32:15;;;;;;;0.25;0.25;;;22.80;99.90;25.90;100094.00;;;;5080126;28;20211;-68
2023/10/13 14:34:56;;;;;;;0.30;0.30;;;22.70;99.90;25.80;100111.00;;;;5095384;28;20200;-68
2023/10/13 14:37:52;;;;;;;2.15;1.98;;;22.80;99.90;25.70;100097.00;;;;5078056;28;20174;-68
2023/10/13 14:40:29;;;;;;;0.88;0.85;;;22.70;99.90;26.20;100104.00;;;;5093247;28;20187;-69
2023/10/13 14:43:27;;;;;;;0.47;0.47;;;22.90;99.90;25.60;100099.00;;;;5095761;28;20179;-68
2023/10/13 14:45:56;;;;;;;5.38;1.15;;;22.80;99.90;25.90;100100.00;;;;5074386;28;20204;-69
2023/10/13 14:48:41;;;;;;;1.65;1.55;;;22.70;99.90;25.90;100102.00;;;;5105215;28;20208;-68
2023/10/13 14:51:25;;;;;;;0.35;0.35;;;22.80;99.90;26.40;100066.00;;;;5082402;28;20208;-68
2023/10/13 14:54:09;;;;;;;0.68;0.65;;;22.80;99.90;26.20;100070.00;;;;5094818;28;20691;-68
2023/10/13 14:57:03;;;;;;;0.10;0.10;;;22.80;99.90;26.30;100060.00;;;;5089946;28;20211;-68
2023/10/13 14:59:39;;;;;;;0.43;0.43;;;22.80;99.90;26.20;100063.00;;;;5074492;28;20622;-68
2023/10/13 15:02:44;;;;;;;0.30;0.30;;;22.90;99.90;25.90;100049.00;;;;5074339;28;20520;-68
2023/10/13 15:05:29;;;;;;;2.75;0.80;;;22.80;99.90;25.40;100021.00;;;;5070546;28;20184;-69
2023/10/13 15:08:03;;;;;;;0.32;0.32;;;22.70;99.90;25.10;100021.00;;;;5091023;28;20176;-68
2023/10/13 15:11:19;;;;;;;0.50;0.50;;;22.50;99.90;25.40;100032.00;;;;5093986;28;20177;-68
2023/10/13 15:13:52;;;;;;;0.38;0.38;;;22.50;99.90;25.70;99999.00;;;;5033664;28;20195;-68
2023/10/13 15:16:37;;;;;;;0.45;0.45;;;22.50;99.90;26.00;100031.00;;;;5031381;28;20191;-68
2023/10/13 15:19:23;;;;;;;1.52;1.42;;;22.60;99.90;25.60;100007.00;;;;5031820;28;20266;-68
2023/10/13 15:21:55;;;;;;;0.88;0.88;;;22.60;99.90;25.60;100018.00;;;;5033503;28;20237;-69
2023/10/13 15:25:08;;;;;;;0.17;0.17;;;22.50;99.90;26.20;99982.00;;;;5040745;28;20281;-68
2023/10/13 15:28:09;;;;;;;0.93;0.93;;;22.60;99.90;25.60;100001.00;;;;5033336;28;20179;-68
2023/10/13 15:30:45;;;;;;;1.50;0.65;;;22.60;99.90;24.80;99985.00;;;;5032571;28;20286;-68
2023/10/13 15:33:43;;;;;;;0.57;0.57;;;22.30;99.90;25.20;99981.00;;;;5032304;28;20223;-68
2023/10/13 15:36:54;;;;;;;0.30;0.30;;;22.30;99.90;25.40;99953.00;;;;5017270;28;20209;-68
2023/10/13 15:39:43;;;;;;;0.30;0.30;;;22.40;99.90;25.40;99981.00;;;;5016978;28;20210;-68
2023/10/13 15:42:41;;;;;;;1.58;1.42;;;22.40;99.90;25.30;99982.00;;;;5014039;28;20195;-68
2023/10/13 15:45:39;;;;;;;1.27;1.20;;;22.40;99.90;25.30;99973.00;;;;5013665;28;20183;-68
2023/10/13 15:48:11;;;;;;;0.55;0.55;;;22.30;99.90;25.20;99968.00;;;;5014718;28;20199;-68
2023/10/13 15:51:03;;;;;;;4.65;2.10;;;22.30;99.90;25.30;99967.00;;;;5033278;28;20225;-68
2023/10/13 15:53:53;;;;;;;2.10;1.17;;;22.30;99.90;25.80;99953.00;;;;5016070;28;20549;-68
2023/10/13 15:56:52;;;;;;;0.30;0.30;;;22.40;99.90;25.70;99960.00;;;;5019047;28;20232;-68
2023/10/13 15:59:24;;;;;;;7.90;0.95;;;22.40;99.90;25.30;99952.00;;;;5016281;28;20201;-68
2023/10/13 16:02:19;;;;;;;1.20;1.10;;;22.40;99.90;25.10;99932.00;;;;5032799;28;20221;-68
2023/10/13 16:05:06;;;;;;;6.72;0.85;;;22.10;99.90;25.00;99911.00;;;;5032112;28;20207;-68
2023/10/13 16:08:07;;;;;;;1.73;1.58;;;22.20;99.90;24.50;99913.00;;;;5032975;28;20247;-68
2023/10/13 16:10:33;;;;;;;1.90;1.30;;;22.10;99.90;24.60;99935.00;;;;4995401;28;20206;-68
2023/10/13 16:13:36;;;;;;;1.75;1.65;;;22.00;99.90;25.00;99945.00;;;;4994854;28;20213;-68
2023/10/13 16:16:27;;;;;;;1.48;0.88;;;21.90;99.90;24.20;99949.00;;;;5094338;28;20293;-67
2023/10/13 16:19:06;;;;;;;3.08;1.80;;;21.60;99.90;23.80;99937.00;;;;5094031;28;20193;-68
2023/10/13 16:22:04;;;;;;;3.38;1.90;;;21.40;99.90;23.20;99933.00;;;;5076983;28;20181;-68
2023/10/13 16:24:33;;;;;;;0.55;0.50;;;21.10;99.90;23.90;99925.00;;;;5107963;28;20165;-68
2023/10/13 16:27:28;;;;;;;1.50;1.40;;;21.00;99.90;23.40;99918.00;;;;5095051;28;20779;-68
2023/10/13 16:30:03;;;;;;;4.07;1.38;;;20.90;99.90;23.50;99913.00;;;;5094462;28;20214;-68
2023/10/13 16:32:56;;;;;;;0.40;0.40;;;20.90;99.90;23.70;99904.00;;;;5092489;28;20219;-68
2023/10/13 16:35:49;;;;;;;2.55;1.05;;;20.90;99.90;24.40;99898.00;;;;5094489;28;20596;-68
2023/10/13 16:38:45;;;;;;;2.40;0.90;;;21.00;99.90;24.20;99887.00;;;;5093038;28;20218;-68
2023/10/13 16:41:29;;;;;;;3.47;1.70;;;21.00;99.90;23.70;99883.00;;;;5094935;28;20216;-68
2023/10/13 16:44:17;;;;;;;2.80;2.58;;;20.90;99.90;23.20;99855.00;;;;5093243;28;20188;-68
2023/10/13 16:47:13;;;;;;;2.70;1.70;;;20.80;99.90;23.50;99853.00;;;;5091448;28;20444;-68
2023/10/13 16:49:52;;;;;;;1.35;0.63;;;20.80;99.90;23.50;99879.00;;;;5092899;28;20623;-68
2023/10/13 16:52:40;;;;;;;2.85;2.65;;;20.80;99.90;23.30;99879.00;;;;5092398;28;20209;-67
2023/10/13 16:55:23;;;;;;;2.65;2.03;;;20.70;99.90;23.10;99859.00;;;;5109473;28;20316;-68
2023/10/13 16:58:27;;;;;;;3.50;1.92;;;20.60;99.90;22.80;99870.00;;;;5094971;28;20649;-68
2023/10/13 17:01:04;;;;;;;2.42;0.90;;;20.60;99.90;22.40;99883.00;;;;5069721;28;20596;-68
2023/10/13 17:04:04;;;;;;;7.95;3.60;;;20.30;99.90;21.70;99859.00;;;;5073800;28;20247;-68
2023/10/13 17:07:07;;;;;;;5.18;3.90;;;19.80;99.90;21.90;99870.00;;;;4989251;28;20195;-70
2023/10/13 17:09:45;;;;;;;3.53;3.22;;;19.70;99.90;21.90;99923.00;;;;5023882;28;20209;-69
2023/10/13 17:12:17;;;;;;;1.17;0.88;;;19.50;99.90;22.20;99925.00;;;;4995600;28;20199;-69
2023/10/13 17:15:24;;;;;;;3.88;2.10;;;19.50;99.90;22.40;99918.00;;;;4992788;28;20245;-69
2023/10/13 17:17:58;;;;;;;1.27;1.27;;;19.50;99.90;21.30;99933.00;;;;5057737;28;20196;-70
2023/10/13 17:24:07;;;;;;;0.80;0.80;;;19.20;99.90;21.70;99924.00;;;;5039792;28;20695;-70
2023/10/13 17:26:37;;;;;;;8.55;2.55;;;19.10;99.90;21.20;99938.00;;;;4994877;28;20598;-70
2023/10/13 17:29:09;;;;;;;0.82;0.82;;;19.00;99.90;22.10;99941.00;;;;5033553;28;20245;-70
2023/10/13 17:32:10;;;;;;;3.15;1.63;;;19.20;99.90;21.20;99918.00;;;;5037710;28;20201;-70
2023/10/13 17:34:37;;;;;;;1.90;1.80;;;19.00;99.90;21.70;99949.00;;;;5047221;28;20189;-70
2023/10/13 17:37:12;;;;;;;2.10;1.98;;;19.00;99.90;22.00;99943.00;;;;5045410;28;20185;-70
2023/10/13 17:40:25;;;;;;;0.70;0.70;;;19.20;99.90;22.40;99939.00;;;;5034467;28;20191;-70
2023/10/13 17:43:24;;;;;;;0.90;0.90;;;19.20;99.90;21.70;99945.00;;;;5072163;28;20241;-70
2023/10/13 17:46:26;;;;;;;1.25;1.08;;;19.10;99.90;22.40;99926.00;;;;5081480;28;20180;-70
2023/10/13 17:49:12;;;;;;;2.10;1.90;;;19.30;99.90;21.90;99925.00;;;;5000443;28;20556;-70
2023/10/13 17:54:52;;;;;;;2.25;1.98;;;19.20;99.90;22.10;99905.00;;;;5074517;28;20572;-70
2023/10/13 17:58:17;;;;;;;1.00;1.00;;;19.20;99.90;21.80;99897.00;;;;5085842;28;20639;-70
2023/10/13 18:01:36;;;;;;;1.75;1.35;;;19.20;99.90;21.60;99898.00;;;;5061712;28;20211;-70
2023/10/13 18:04:46;;;;;;;5.55;2.00;;;19.00;99.90;21.20;99888.00;;;;5077697;28;20256;-70
2023/10/13 18:08:08;;;;;;;6.07;2.00;;;19.00;99.90;21.40;99858.00;;;;5075514;28;20176;-70
2023/10/13 18:11:35;;;;;;;2.55;2.35;;;18.90;99.90;22.10;99895.00;;;;5088393;28;20268;-69
2023/10/13 18:14:39;;;;;;;2.10;1.98;;;19.00;99.90;22.20;99861.00;;;;5067173;28;20176;-70
2023/10/13 18:17:36;;;;;;;3.92;1.35;;;19.20;99.90;22.20;99855.00;;;;5069195;28;20181;-70
2023/10/13 18:20:59;;;;;;;9.23;5.70;;;19.10;99.90;21.80;99869.00;;;;5099551;28;20268;-70
2023/10/13 18:24:11;;;;;;;1.10;1.10;;;19.10;99.90;22.00;99860.00;;;;5082007;28;20189;-70
2023/10/13 18:27:05;;;;;;;1.52;1.42;;;19.20;99.90;22.70;99845.00;;;;5064867;28;20262;-70
2023/10/13 18:29:59;;;;;;;1.08;1.08;;;19.40;99.90;22.10;99820.00;;;;5075856;28;20175;-70
2023/10/13 18:33:04;;;;;;;1.48;1.42;;;19.30;99.90;22.20;99863.00;;;;5082430;28;20297;-69
2023/10/13 18:35:55;;;;;;;1.80;1.73;;;19.20;99.90;22.40;99826.00;;;;5089578;28;20247;-70
2023/10/13 18:39:09;;;;;;;0.80;0.80;;;19.40;99.90;22.30;99839.00;;;;5107072;28;20204;-69
2023/10/13 18:41:59;;;;;;;0.60;0.60;;;19.30;99.90;22.70;99828.00;;;;5089135;28;20585;-70
2023/10/13 18:44:50;;;;;;;0.98;0.98;;;19.40;99.90;22.00;99819.00;;;;5073223;28;20197;-70
2023/10/13 18:47:44;;;;;;;1.88;1.77;;;19.40;99.90;22.10;99831.00;;;;5087267;28;20181;-69
2023/10/13 18:50:41;;;;;;;0.83;0.83;;;19.30;99.90;22.10;99827.00;;;;5081190;28;20180;-69
2023/10/13 18:53:15;;;;;;;0.70;0.70;;;19.20;99.90;22.30;99825.00;;;;5090891;28;20206;-69
2023/10/13 18:56:10;;;;;;;1.97;1.87;;;19.20;99.90;22.10;99798.00;;;;5099473;28;20313;-69
2023/10/13 18:59:02;;;;;;;1.85;1.52;;;19.30;99.90;21.70;99809.00;;;;5078720;28;20189;-69
2023/10/13 19:02:13;;;;;;;0.90;0.90;;;19.10;99.90;21.80;99775.00;;;;5096460;28;20317;-69
2023/10/13 19:05:03;;;;;;;3.83;1.85;;;19.10;99.90;21.50;99775.00;;;;5067062;28;20576;-69
2023/10/13 19:08:08;;;;;;;2.90;1.25;;;19.00;99.90;21.60;99792.00;;;;5068927;28;20180;-69
2023/10/13 19:10:56;;;;;;;1.90;1.80;;;19.10;99.90;22.20;99784.00;;;;5083673;28;20193;-69
2023/10/13 19:13:52;;;;;;;1.73;1.63;;;19.30;99.90;22.10;99793.00;;;;5090590;28;20642;-69
2023/10/13 19:16:45;;;;;;;5.05;2.33;;;19.20;99.90;22.20;99788.00;;;;5073573;28;20251;-69
2023/10/13 19:19:51;;;;;;;4.38;2.65;;;19.30;99.90;22.00;99789.00;;;;5092548;27;20521;-70
2023/10/13 19:22:58;;;;;;;2.92;2.65;;;19.30;99.90;21.80;99788.00;;;;5059924;28;20258;-68
2023/10/13 19:25:50;;;;;;;1.35;1.35;;;19.30;99.90;22.30;99776.00;;;;5079653;28;20264;-69
2023/10/13 19:29:05;;;;;;;3.58;3.28;;;19.40;99.90;22.00;99775.00;;;;5056529;28;20583;-69
2023/10/13 19:32:21;;;;;;;1.60;1.35;;;19.30;99.90;21.60;99765.00;;;;5094507;28;20311;-69
2023/10/13 19:35:43;;;;;;;3.00;1.00;;;19.30;99.90;22.30;99768.00;;;;5086786;28;20615;-69
2023/10/13 19:38:52;;;;;;;3.80;3.00;;;19.40;99.90;22.00;99771.00;;;;5084219;28;20682;-70
2023/10/13 19:45:16;;;;;;;5.53;2.97;;;19.40;99.90;22.20;99756.00;;;;5101961;28;20196;-69
2023/10/13 19:48:22;;;;;;;3.03;2.83;;;19.40;99.90;22.50;99749.00;;;;5093637;28;20176;-69
2023/10/13 19:51:27;;;;;;;3.05;2.53;;;19.50;99.90;21.90;99764.00;;;;5088408;28;20180;-69
2023/10/13 19:54:16;;;;;;;1.13;1.00;;;19.50;99.90;22.30;99733.00;;;;5100405;28;20180;-69
2023/10/13 19:57:03;;;;;;;2.33;2.15;;;19.50;99.90;22.10;99756.00;;;;5068554;28;20227;-69
2023/10/13 19:59:50;;;;;;;2.45;2.25;;;19.60;99.90;22.60;99743.00;;;;5088458;28;20256;-69
2023/10/13 20:02:38;;;;;;;7.97;5.55;;;19.70;99.90;22.60;99739.00;;;;5058871;28;20300;-68
2023/10/13 20:05:04;;;;;;;1.33;1.33;;;19.70;99.90;22.60;99732.00;;;;5095679;28;20232;-68
2023/10/13 20:07:41;;;;;;;4.38;4.03;;;19.80;99.90;22.70;99734.00;;;;5094876;28;20587;-69
2023/10/13 20:10:42;;;;;;;2.67;2.47;;;19.90;99.90;23.30;99751.00;;;;5089070;28;20275;-69
2023/10/13 20:13:28;;;;;;;3.90;3.38;;;20.00;99.90;22.70;99763.00;;;;5060500;28;20625;-69
2023/10/13 20:15:54;;;;;;;2.75;1.95;;;20.00;99.90;22.30;99758.00;;;;5085655;28;20623;-68
2023/10/13 20:18:42;;;;;;;1.95;1.85;;;19.80;99.90;23.10;99758.00;;;;5112114;28;20233;-69
2023/10/13 20:21:45;;;;;;;1.45;1.35;;;19.90;99.90;23.10;99764.00;;;;5108089;28;20169;-69
2023/10/13 20:24:29;;;;;;;10.32;4.13;;;20.00;99.90;23.00;99752.00;;;;5082038;28;20648;-70
2023/10/13 20:27:31;;;;;;;4.72;4.40;;;20.00;99.90;22.60;99739.00;;;;5102608;28;20188;-69
2023/10/13 20:30:08;;;;;;;4.65;3.97;;;20.00;99.90;23.50;99729.00;;;;5111870;28;20644;-69
2023/10/13 20:33:09;;;;;;;1.23;1.23;;;20.00;99.90;23.40;99741.00;;;;5086477;28;20533;-69
2023/10/13 20:36:17;;;;;;;4.65;4.15;;;20.20;99.90;23.30;99729.00;;;;5108057;28;20168;-69
2023/10/13 20:38:50;;;;;;;0.68;0.68;;;20.10;99.90;23.30;99753.00;;;;5080404;28;20252;-69
2023/10/13 20:41:37;;;;;;;3.13;2.55;;;20.20;99.90;22.40;99743.00;;;;5094413;28;20540;-68
2023/10/13 20:44:14;;;;;;;2.65;2.45;;;20.10;99.90;23.50;99744.00;;;;5078869;28;20195;-71
2023/10/13 20:47:17;;;;;;;6.72;5.88;;;20.20;99.90;22.70;99746.00;;;;5090435;28;20206;-70